sensor_id;sensor_type;location;lat;lon;timestamp;P1;durP1;ratioP1;P2;durP2;ratioP2
61473;SDS011;53694;49.784;30.150;2023-12-28T00:00:01;7.24;;;3.00;;
61473;SDS011;53694;49.784;30.150;2023-12-28T00:01:03;9.23;;;3.07;;
61473;SDS011;53694;49.784;30.150;2023-12-28T00:02:05;7.41;;;2.64;;
61473;SDS011;53694;49.784;30.150;2023-12-28T00:03:06;6.61;;;2.90;;
61473;SDS011;53694;49.784;30.150;2023-12-28T00:04:08;7.31;;;3.07;;
61473;SDS011;53694;49.784;30.150;2023-12-28T00:05:10;8.77;;;3.48;;
61473;SDS011;53694;49.784;30.150;2023-12-28T00:06:11;7.22;;;3.79;;
61473;SDS011;53694;49.784;30.150;2023-12-28T00:07:13;13.91;;;3.69;;
61473;SDS011;53694;49.784;30.150;2023-12-28T00:08:14;9.19;;;3.76;;
61473;SDS011;53694;49.784;30.150;2023-12-28T00:09:16;8.82;;;3.34;;
61473;SDS011;53694;49.784;30.150;2023-12-28T00:10:17;6.76;;;2.83;;
61473;SDS011;53694;49.784;30.150;2023-12-28T00:11:19;7.69;;;2.65;;
61473;SDS011;53694;49.784;30.150;2023-12-28T00:12:21;8.25;;;2.94;;
61473;SDS011;53694;49.784;30.150;2023-12-28T00:13:22;6.44;;;2.86;;
61473;SDS011;53694;49.784;30.150;2023-12-28T00:14:24;7.07;;;2.39;;
61473;SDS011;53694;49.784;30.150;2023-12-28T00:15:26;6.87;;;2.49;;
61473;SDS011;53694;49.784;30.150;2023-12-28T00:16:27;7.22;;;2.49;;
61473;SDS011;53694;49.784;30.150;2023-12-28T00:17:29;10.27;;;2.81;;
61473;SDS011;53694;49.784;30.150;2023-12-28T00:18:30;7.11;;;2.98;;
61473;SDS011;53694;49.784;30.150;2023-12-28T00:19:32;8.89;;;3.03;;
61473;SDS011;53694;49.784;30.150;2023-12-28T00:20:33;7.27;;;2.91;;
61473;SDS011;53694;49.784;30.150;2023-12-28T00:21:35;8.47;;;3.11;;
61473;SDS011;53694;49.784;30.150;2023-12-28T00:22:36;8.99;;;3.27;;
61473;SDS011;53694;49.784;30.150;2023-12-28T00:23:38;7.05;;;3.06;;
61473;SDS011;53694;49.784;30.150;2023-12-28T00:24:40;9.63;;;3.44;;
61473;SDS011;53694;49.784;30.150;2023-12-28T00:25:41;8.11;;;3.11;;
61473;SDS011;53694;49.784;30.150;2023-12-28T00:26:43;7.77;;;3.63;;
61473;SDS011;53694;49.784;30.150;2023-12-28T00:27:44;12.49;;;3.26;;
61473;SDS011;53694;49.784;30.150;2023-12-28T00:28:46;8.83;;;3.61;;
61473;SDS011;53694;49.784;30.150;2023-12-28T00:29:48;9.76;;;3.62;;
61473;SDS011;53694;49.784;30.150;2023-12-28T00:30:50;6.37;;;2.91;;
61473;SDS011;53694;49.784;30.150;2023-12-28T00:31:51;8.44;;;2.71;;
61473;SDS011;53694;49.784;30.150;2023-12-28T00:32:53;7.36;;;2.17;;
61473;SDS011;53694;49.784;30.150;2023-12-28T00:33:54;6.65;;;2.05;;
61473;SDS011;53694;49.784;30.150;2023-12-28T00:34:56;5.99;;;2.55;;
61473;SDS011;53694;49.784;30.150;2023-12-28T00:35:57;5.23;;;2.23;;
61473;SDS011;53694;49.784;30.150;2023-12-28T00:36:59;7.54;;;2.23;;
61473;SDS011;53694;49.784;30.150;2023-12-28T00:38:00;5.76;;;1.91;;
61473;SDS011;53694;49.784;30.150;2023-12-28T00:39:02;6.39;;;2.39;;
61473;SDS011;53694;49.784;30.150;2023-12-28T00:40:04;8.24;;;2.95;;
61473;SDS011;53694;49.784;30.150;2023-12-28T00:41:06;7.65;;;2.87;;
61473;SDS011;53694;49.784;30.150;2023-12-28T00:42:08;9.45;;;2.74;;
61473;SDS011;53694;49.784;30.150;2023-12-28T00:43:09;8.41;;;2.74;;
61473;SDS011;53694;49.784;30.150;2023-12-28T00:44:11;7.56;;;2.72;;
61473;SDS011;53694;49.784;30.150;2023-12-28T00:45:13;8.56;;;3.23;;
61473;SDS011;53694;49.784;30.150;2023-12-28T00:46:14;8.92;;;3.11;;
61473;SDS011;53694;49.784;30.150;2023-12-28T00:47:16;10.05;;;3.39;;
61473;SDS011;53694;49.784;30.150;2023-12-28T00:48:17;6.18;;;3.14;;
61473;SDS011;53694;49.784;30.150;2023-12-28T00:49:19;7.12;;;3.31;;
61473;SDS011;53694;49.784;30.150;2023-12-28T00:50:20;10.09;;;3.64;;
61473;SDS011;53694;49.784;30.150;2023-12-28T00:51:22;7.13;;;4.00;;
61473;SDS011;53694;49.784;30.150;2023-12-28T00:52:23;7.51;;;2.73;;
61473;SDS011;53694;49.784;30.150;2023-12-28T00:53:26;9.45;;;2.61;;
61473;SDS011;53694;49.784;30.150;2023-12-28T00:54:27;5.89;;;2.35;;
61473;SDS011;53694;49.784;30.150;2023-12-28T00:55:29;9.36;;;2.98;;
61473;SDS011;53694;49.784;30.150;2023-12-28T00:56:31;6.79;;;2.32;;
61473;SDS011;53694;49.784;30.150;2023-12-28T00:57:32;5.41;;;2.13;;
61473;SDS011;53694;49.784;30.150;2023-12-28T00:58:34;7.91;;;2.40;;
61473;SDS011;53694;49.784;30.150;2023-12-28T00:59:35;6.13;;;2.70;;
61473;SDS011;53694;49.784;30.150;2023-12-28T01:00:37;7.06;;;2.44;;
61473;SDS011;53694;49.784;30.150;2023-12-28T01:01:39;7.36;;;2.54;;
61473;SDS011;53694;49.784;30.150;2023-12-28T01:02:40;6.58;;;2.29;;
61473;SDS011;53694;49.784;30.150;2023-12-28T01:03:42;7.92;;;2.82;;
61473;SDS011;53694;49.784;30.150;2023-12-28T01:04:43;9.59;;;2.89;;
61473;SDS011;53694;49.784;30.150;2023-12-28T01:05:45;6.94;;;2.49;;
61473;SDS011;53694;49.784;30.150;2023-12-28T01:06:47;7.38;;;3.25;;
61473;SDS011;53694;49.784;30.150;2023-12-28T01:07:48;7.68;;;2.47;;
61473;SDS011;53694;49.784;30.150;2023-12-28T01:08:50;6.31;;;2.79;;
61473;SDS011;53694;49.784;30.150;2023-12-28T01:09:51;8.91;;;2.90;;
61473;SDS011;53694;49.784;30.150;2023-12-28T01:10:53;8.28;;;3.33;;
61473;SDS011;53694;49.784;30.150;2023-12-28T01:11:55;10.06;;;3.44;;
61473;SDS011;53694;49.784;30.150;2023-12-28T01:12:56;8.06;;;2.94;;
61473;SDS011;53694;49.784;30.150;2023-12-28T01:13:58;6.46;;;2.16;;
61473;SDS011;53694;49.784;30.150;2023-12-28T01:15:00;4.57;;;1.89;;
61473;SDS011;53694;49.784;30.150;2023-12-28T01:16:01;8.15;;;2.55;;
61473;SDS011;53694;49.784;30.150;2023-12-28T01:17:03;8.50;;;2.17;;
61473;SDS011;53694;49.784;30.150;2023-12-28T01:18:05;5.17;;;1.99;;
61473;SDS011;53694;49.784;30.150;2023-12-28T01:19:07;7.37;;;2.27;;
61473;SDS011;53694;49.784;30.150;2023-12-28T01:20:09;8.93;;;2.27;;
61473;SDS011;53694;49.784;30.150;2023-12-28T01:21:11;7.47;;;2.51;;
61473;SDS011;53694;49.784;30.150;2023-12-28T01:22:12;6.69;;;2.27;;
61473;SDS011;53694;49.784;30.150;2023-12-28T01:23:14;6.86;;;2.55;;
61473;SDS011;53694;49.784;30.150;2023-12-28T01:24:15;6.24;;;2.34;;
61473;SDS011;53694;49.784;30.150;2023-12-28T01:25:17;6.19;;;2.55;;
61473;SDS011;53694;49.784;30.150;2023-12-28T01:26:20;9.64;;;2.94;;
61473;SDS011;53694;49.784;30.150;2023-12-28T01:27:22;7.53;;;2.96;;
61473;SDS011;53694;49.784;30.150;2023-12-28T01:28:23;7.51;;;2.69;;
61473;SDS011;53694;49.784;30.150;2023-12-28T01:29:25;8.37;;;3.44;;
61473;SDS011;53694;49.784;30.150;2023-12-28T01:30:28;8.58;;;3.15;;
61473;SDS011;53694;49.784;30.150;2023-12-28T01:31:29;6.49;;;3.15;;
61473;SDS011;53694;49.784;30.150;2023-12-28T01:32:31;7.19;;;2.99;;
61473;SDS011;53694;49.784;30.150;2023-12-28T01:33:32;6.00;;;2.86;;
61473;SDS011;53694;49.784;30.150;2023-12-28T01:34:34;4.52;;;2.17;;
61473;SDS011;53694;49.784;30.150;2023-12-28T01:35:35;4.38;;;2.34;;
61473;SDS011;53694;49.784;30.150;2023-12-28T01:36:37;5.96;;;2.07;;
61473;SDS011;53694;49.784;30.150;2023-12-28T01:37:38;4.69;;;2.31;;
61473;SDS011;53694;49.784;30.150;2023-12-28T01:38:40;6.49;;;2.05;;
61473;SDS011;53694;49.784;30.150;2023-12-28T01:39:41;7.71;;;2.16;;
61473;SDS011;53694;49.784;30.150;2023-12-28T01:40:46;3.58;;;1.64;;
61473;SDS011;53694;49.784;30.150;2023-12-28T01:41:47;7.46;;;2.21;;
61473;SDS011;53694;49.784;30.150;2023-12-28T01:42:49;5.29;;;2.01;;
61473;SDS011;53694;49.784;30.150;2023-12-28T01:43:51;6.10;;;2.26;;
61473;SDS011;53694;49.784;30.150;2023-12-28T01:44:52;6.31;;;2.53;;
61473;SDS011;53694;49.784;30.150;2023-12-28T01:45:54;6.76;;;2.46;;
61473;SDS011;53694;49.784;30.150;2023-12-28T01:46:55;7.79;;;2.49;;
61473;SDS011;53694;49.784;30.150;2023-12-28T01:47:57;6.67;;;2.50;;
61473;SDS011;53694;49.784;30.150;2023-12-28T01:49:00;8.22;;;2.94;;
61473;SDS011;53694;49.784;30.150;2023-12-28T01:50:02;8.66;;;2.87;;
61473;SDS011;53694;49.784;30.150;2023-12-28T01:51:04;6.45;;;2.87;;
61473;SDS011;53694;49.784;30.150;2023-12-28T01:52:06;7.89;;;2.90;;
61473;SDS011;53694;49.784;30.150;2023-12-28T01:53:08;7.16;;;3.02;;
61473;SDS011;53694;49.784;30.150;2023-12-28T01:54:09;5.78;;;3.09;;
61473;SDS011;53694;49.784;30.150;2023-12-28T01:55:11;8.23;;;3.16;;
61473;SDS011;53694;49.784;30.150;2023-12-28T01:56:14;8.97;;;2.77;;
61473;SDS011;53694;49.784;30.150;2023-12-28T01:57:16;4.03;;;1.89;;
61473;SDS011;53694;49.784;30.150;2023-12-28T01:58:18;6.02;;;2.06;;
61473;SDS011;53694;49.784;30.150;2023-12-28T01:59:21;5.66;;;2.09;;
61473;SDS011;53694;49.784;30.150;2023-12-28T02:00:23;7.32;;;2.30;;
61473;SDS011;53694;49.784;30.150;2023-12-28T02:01:25;5.46;;;1.84;;
61473;SDS011;53694;49.784;30.150;2023-12-28T02:02:27;4.80;;;1.87;;
61473;SDS011;53694;49.784;30.150;2023-12-28T02:03:30;6.31;;;1.99;;
61473;SDS011;53694;49.784;30.150;2023-12-28T02:04:32;6.43;;;2.66;;
61473;SDS011;53694;49.784;30.150;2023-12-28T02:05:34;9.21;;;2.97;;
61473;SDS011;53694;49.784;30.150;2023-12-28T02:06:36;6.93;;;2.64;;
61473;SDS011;53694;49.784;30.150;2023-12-28T02:07:38;9.82;;;2.94;;
61473;SDS011;53694;49.784;30.150;2023-12-28T02:08:39;7.26;;;2.86;;
61473;SDS011;53694;49.784;30.150;2023-12-28T02:09:40;8.20;;;2.71;;
61473;SDS011;53694;49.784;30.150;2023-12-28T02:10:42;9.21;;;3.07;;
61473;SDS011;53694;49.784;30.150;2023-12-28T02:11:44;7.11;;;2.85;;
61473;SDS011;53694;49.784;30.150;2023-12-28T02:12:46;10.31;;;3.46;;
61473;SDS011;53694;49.784;30.150;2023-12-28T02:13:47;7.71;;;2.63;;
61473;SDS011;53694;49.784;30.150;2023-12-28T02:14:49;7.64;;;3.16;;
61473;SDS011;53694;49.784;30.150;2023-12-28T02:15:54;9.63;;;3.10;;
61473;SDS011;53694;49.784;30.150;2023-12-28T02:17:00;7.66;;;3.57;;
61473;SDS011;53694;49.784;30.150;2023-12-28T02:19:25;9.24;;;3.46;;
61473;SDS011;53694;49.784;30.150;2023-12-28T02:20:35;8.42;;;3.19;;
61473;SDS011;53694;49.784;30.150;2023-12-28T02:21:38;7.89;;;3.56;;
61473;SDS011;53694;49.784;30.150;2023-12-28T02:22:40;6.65;;;2.65;;
61473;SDS011;53694;49.784;30.150;2023-12-28T02:23:48;5.64;;;2.14;;
61473;SDS011;53694;49.784;30.150;2023-12-28T02:26:09;6.21;;;2.08;;
61473;SDS011;53694;49.784;30.150;2023-12-28T02:27:11;4.69;;;2.09;;
61473;SDS011;53694;49.784;30.150;2023-12-28T02:28:12;6.67;;;2.24;;
61473;SDS011;53694;49.784;30.150;2023-12-28T02:29:14;7.47;;;2.64;;
61473;SDS011;53694;49.784;30.150;2023-12-28T02:30:16;9.66;;;2.33;;
61473;SDS011;53694;49.784;30.150;2023-12-28T02:31:28;5.58;;;2.53;;
61473;SDS011;53694;49.784;30.150;2023-12-28T02:34:12;8.63;;;3.21;;
61473;SDS011;53694;49.784;30.150;2023-12-28T02:35:25;9.17;;;3.55;;
61473;SDS011;53694;49.784;30.150;2023-12-28T02:36:47;8.97;;;3.63;;
61473;SDS011;53694;49.784;30.150;2023-12-28T02:37:51;7.66;;;3.59;;
61473;SDS011;53694;49.784;30.150;2023-12-28T02:38:54;9.00;;;3.76;;
61473;SDS011;53694;49.784;30.150;2023-12-28T02:39:59;6.74;;;2.93;;
61473;SDS011;53694;49.784;30.150;2023-12-28T02:41:02;8.29;;;2.92;;
61473;SDS011;53694;49.784;30.150;2023-12-28T02:42:04;9.69;;;3.88;;
61473;SDS011;53694;49.784;30.150;2023-12-28T02:43:06;7.41;;;3.22;;
61473;SDS011;53694;49.784;30.150;2023-12-28T02:44:09;8.47;;;3.32;;
61473;SDS011;53694;49.784;30.150;2023-12-28T02:45:10;10.12;;;3.97;;
61473;SDS011;53694;49.784;30.150;2023-12-28T02:46:12;10.99;;;3.41;;
61473;SDS011;53694;49.784;30.150;2023-12-28T02:47:14;9.43;;;3.83;;
61473;SDS011;53694;49.784;30.150;2023-12-28T02:48:15;9.44;;;4.19;;
61473;SDS011;53694;49.784;30.150;2023-12-28T02:49:17;10.69;;;3.91;;
61473;SDS011;53694;49.784;30.150;2023-12-28T02:50:20;8.75;;;3.11;;
61473;SDS011;53694;49.784;30.150;2023-12-28T02:51:22;7.78;;;2.93;;
61473;SDS011;53694;49.784;30.150;2023-12-28T02:52:23;9.14;;;2.79;;
61473;SDS011;53694;49.784;30.150;2023-12-28T02:53:24;6.61;;;3.03;;
61473;SDS011;53694;49.784;30.150;2023-12-28T02:54:26;7.07;;;2.66;;
61473;SDS011;53694;49.784;30.150;2023-12-28T02:55:27;6.65;;;2.64;;
61473;SDS011;53694;49.784;30.150;2023-12-28T02:56:29;5.48;;;2.79;;
61473;SDS011;53694;49.784;30.150;2023-12-28T02:57:31;8.91;;;3.26;;
61473;SDS011;53694;49.784;30.150;2023-12-28T02:58:33;7.32;;;3.32;;
61473;SDS011;53694;49.784;30.150;2023-12-28T02:59:34;7.69;;;3.60;;
61473;SDS011;53694;49.784;30.150;2023-12-28T03:00:36;9.89;;;4.28;;
61473;SDS011;53694;49.784;30.150;2023-12-28T03:01:38;7.99;;;3.66;;
61473;SDS011;53694;49.784;30.150;2023-12-28T03:02:39;10.48;;;4.57;;
61473;SDS011;53694;49.784;30.150;2023-12-28T03:03:40;7.85;;;4.07;;
61473;SDS011;53694;49.784;30.150;2023-12-28T03:04:42;13.71;;;4.18;;
61473;SDS011;53694;49.784;30.150;2023-12-28T03:05:44;9.19;;;4.11;;
61473;SDS011;53694;49.784;30.150;2023-12-28T03:06:46;9.38;;;4.33;;
61473;SDS011;53694;49.784;30.150;2023-12-28T03:07:48;9.12;;;4.24;;
61473;SDS011;53694;49.784;30.150;2023-12-28T03:08:49;11.25;;;4.27;;
61473;SDS011;53694;49.784;30.150;2023-12-28T03:09:51;8.61;;;4.37;;
61473;SDS011;53694;49.784;30.150;2023-12-28T03:10:52;13.24;;;4.00;;
61473;SDS011;53694;49.784;30.150;2023-12-28T03:11:54;7.99;;;3.99;;
61473;SDS011;53694;49.784;30.150;2023-12-28T03:12:55;9.19;;;4.32;;
61473;SDS011;53694;49.784;30.150;2023-12-28T03:13:57;13.40;;;4.64;;
61473;SDS011;53694;49.784;30.150;2023-12-28T03:14:59;13.79;;;5.58;;
61473;SDS011;53694;49.784;30.150;2023-12-28T03:16:00;15.69;;;6.19;;
61473;SDS011;53694;49.784;30.150;2023-12-28T03:17:02;21.76;;;6.30;;
61473;SDS011;53694;49.784;30.150;2023-12-28T03:18:03;13.46;;;5.43;;
61473;SDS011;53694;49.784;30.150;2023-12-28T03:19:05;13.66;;;5.95;;
61473;SDS011;53694;49.784;30.150;2023-12-28T03:20:08;12.59;;;5.42;;
61473;SDS011;53694;49.784;30.150;2023-12-28T03:21:10;15.93;;;6.16;;
61473;SDS011;53694;49.784;30.150;2023-12-28T03:22:12;18.56;;;7.06;;
61473;SDS011;53694;49.784;30.150;2023-12-28T03:23:14;15.71;;;6.18;;
61473;SDS011;53694;49.784;30.150;2023-12-28T03:24:15;17.89;;;6.81;;
61473;SDS011;53694;49.784;30.150;2023-12-28T03:25:16;35.54;;;13.02;;
61473;SDS011;53694;49.784;30.150;2023-12-28T03:26:19;34.58;;;13.28;;
61473;SDS011;53694;49.784;30.150;2023-12-28T03:27:21;34.71;;;13.37;;
61473;SDS011;53694;49.784;30.150;2023-12-28T03:28:22;19.59;;;7.93;;
61473;SDS011;53694;49.784;30.150;2023-12-28T03:29:24;24.10;;;10.76;;
61473;SDS011;53694;49.784;30.150;2023-12-28T03:30:26;17.98;;;8.77;;
61473;SDS011;53694;49.784;30.150;2023-12-28T03:31:27;14.47;;;6.14;;
61473;SDS011;53694;49.784;30.150;2023-12-28T03:32:29;14.61;;;6.05;;
61473;SDS011;53694;49.784;30.150;2023-12-28T03:33:30;13.00;;;4.69;;
61473;SDS011;53694;49.784;30.150;2023-12-28T03:34:32;12.79;;;5.46;;
61473;SDS011;53694;49.784;30.150;2023-12-28T03:35:34;11.34;;;5.31;;
61473;SDS011;53694;49.784;30.150;2023-12-28T03:36:35;12.96;;;5.31;;
61473;SDS011;53694;49.784;30.150;2023-12-28T03:37:37;13.39;;;5.51;;
61473;SDS011;53694;49.784;30.150;2023-12-28T03:38:38;14.36;;;6.00;;
61473;SDS011;53694;49.784;30.150;2023-12-28T03:39:40;10.15;;;4.85;;
61473;SDS011;53694;49.784;30.150;2023-12-28T03:40:42;9.92;;;4.89;;
61473;SDS011;53694;49.784;30.150;2023-12-28T03:41:43;14.19;;;6.04;;
61473;SDS011;53694;49.784;30.150;2023-12-28T03:42:45;12.31;;;5.46;;
61473;SDS011;53694;49.784;30.150;2023-12-28T03:43:47;11.04;;;4.67;;
61473;SDS011;53694;49.784;30.150;2023-12-28T03:44:48;12.62;;;5.03;;
61473;SDS011;53694;49.784;30.150;2023-12-28T03:45:50;13.44;;;5.01;;
61473;SDS011;53694;49.784;30.150;2023-12-28T03:46:52;14.41;;;5.93;;
61473;SDS011;53694;49.784;30.150;2023-12-28T03:47:53;17.14;;;6.26;;
61473;SDS011;53694;49.784;30.150;2023-12-28T03:48:55;15.31;;;6.54;;
61473;SDS011;53694;49.784;30.150;2023-12-28T03:49:56;18.43;;;6.99;;
61473;SDS011;53694;49.784;30.150;2023-12-28T03:50:58;16.86;;;7.62;;
61473;SDS011;53694;49.784;30.150;2023-12-28T03:51:59;18.76;;;7.80;;
61473;SDS011;53694;49.784;30.150;2023-12-28T03:53:01;15.43;;;5.58;;
61473;SDS011;53694;49.784;30.150;2023-12-28T03:54:03;18.15;;;6.50;;
61473;SDS011;53694;49.784;30.150;2023-12-28T03:55:04;13.50;;;5.01;;
61473;SDS011;53694;49.784;30.150;2023-12-28T03:56:06;12.76;;;5.01;;
61473;SDS011;53694;49.784;30.150;2023-12-28T03:57:08;13.59;;;4.65;;
61473;SDS011;53694;49.784;30.150;2023-12-28T03:58:10;10.89;;;5.20;;
61473;SDS011;53694;49.784;30.150;2023-12-28T03:59:11;12.74;;;4.54;;
61473;SDS011;53694;49.784;30.150;2023-12-28T04:00:13;11.30;;;4.78;;
61473;SDS011;53694;49.784;30.150;2023-12-28T04:01:18;8.69;;;4.45;;
61473;SDS011;53694;49.784;30.150;2023-12-28T04:02:22;12.31;;;5.02;;
61473;SDS011;53694;49.784;30.150;2023-12-28T04:03:23;10.83;;;4.84;;
61473;SDS011;53694;49.784;30.150;2023-12-28T04:04:25;9.59;;;3.76;;
61473;SDS011;53694;49.784;30.150;2023-12-28T04:05:26;6.19;;;2.66;;
61473;SDS011;53694;49.784;30.150;2023-12-28T04:06:28;8.79;;;3.02;;
61473;SDS011;53694;49.784;30.150;2023-12-28T04:07:30;6.56;;;2.67;;
61473;SDS011;53694;49.784;30.150;2023-12-28T04:08:31;5.31;;;2.72;;
61473;SDS011;53694;49.784;30.150;2023-12-28T04:09:33;5.67;;;2.46;;
61473;SDS011;53694;49.784;30.150;2023-12-28T04:10:35;7.46;;;2.11;;
61473;SDS011;53694;49.784;30.150;2023-12-28T04:11:36;7.41;;;2.34;;
61473;SDS011;53694;49.784;30.150;2023-12-28T04:12:38;6.54;;;2.50;;
61473;SDS011;53694;49.784;30.150;2023-12-28T04:13:39;7.22;;;2.46;;
61473;SDS011;53694;49.784;30.150;2023-12-28T04:14:41;10.36;;;2.71;;
61473;SDS011;53694;49.784;30.150;2023-12-28T04:15:43;7.16;;;2.86;;
61473;SDS011;53694;49.784;30.150;2023-12-28T04:16:44;10.35;;;3.61;;
61473;SDS011;53694;49.784;30.150;2023-12-28T04:17:46;6.94;;;3.15;;
61473;SDS011;53694;49.784;30.150;2023-12-28T04:18:47;9.26;;;3.69;;
61473;SDS011;53694;49.784;30.150;2023-12-28T04:19:48;7.94;;;4.22;;
61473;SDS011;53694;49.784;30.150;2023-12-28T04:20:50;9.16;;;3.89;;
61473;SDS011;53694;49.784;30.150;2023-12-28T04:21:52;12.22;;;4.44;;
61473;SDS011;53694;49.784;30.150;2023-12-28T04:22:53;12.77;;;4.93;;
61473;SDS011;53694;49.784;30.150;2023-12-28T04:23:55;11.44;;;4.99;;
61473;SDS011;53694;49.784;30.150;2023-12-28T04:24:56;15.53;;;6.23;;
61473;SDS011;53694;49.784;30.150;2023-12-28T04:25:58;17.10;;;6.89;;
61473;SDS011;53694;49.784;30.150;2023-12-28T04:26:59;15.96;;;6.86;;
61473;SDS011;53694;49.784;30.150;2023-12-28T04:28:01;16.59;;;5.62;;
61473;SDS011;53694;49.784;30.150;2023-12-28T04:29:03;11.01;;;5.31;;
61473;SDS011;53694;49.784;30.150;2023-12-28T04:30:05;16.39;;;5.19;;
61473;SDS011;53694;49.784;30.150;2023-12-28T04:31:07;11.98;;;5.39;;
61473;SDS011;53694;49.784;30.150;2023-12-28T04:32:09;12.61;;;5.11;;
61473;SDS011;53694;49.784;30.150;2023-12-28T04:33:10;12.69;;;5.28;;
61473;SDS011;53694;49.784;30.150;2023-12-28T04:34:12;28.45;;;13.31;;
61473;SDS011;53694;49.784;30.150;2023-12-28T04:35:14;29.86;;;12.56;;
61473;SDS011;53694;49.784;30.150;2023-12-28T04:36:15;33.61;;;13.80;;
61473;SDS011;53694;49.784;30.150;2023-12-28T04:37:17;17.62;;;8.43;;
61473;SDS011;53694;49.784;30.150;2023-12-28T04:38:18;26.49;;;9.97;;
61473;SDS011;53694;49.784;30.150;2023-12-28T04:39:20;17.55;;;7.72;;
61473;SDS011;53694;49.784;30.150;2023-12-28T04:40:22;13.97;;;5.87;;
61473;SDS011;53694;49.784;30.150;2023-12-28T04:41:23;19.44;;;7.74;;
61473;SDS011;53694;49.784;30.150;2023-12-28T04:42:25;12.04;;;6.19;;
61473;SDS011;53694;49.784;30.150;2023-12-28T04:43:26;14.82;;;8.11;;
61473;SDS011;53694;49.784;30.150;2023-12-28T04:44:28;13.11;;;7.74;;
61473;SDS011;53694;49.784;30.150;2023-12-28T04:45:30;15.49;;;7.51;;
61473;SDS011;53694;49.784;30.150;2023-12-28T04:46:31;19.11;;;7.83;;
61473;SDS011;53694;49.784;30.150;2023-12-28T04:47:33;13.34;;;6.90;;
61473;SDS011;53694;49.784;30.150;2023-12-28T04:48:34;12.94;;;5.59;;
61473;SDS011;53694;49.784;30.150;2023-12-28T04:49:36;12.99;;;5.29;;
61473;SDS011;53694;49.784;30.150;2023-12-28T04:50:37;17.47;;;5.26;;
61473;SDS011;53694;49.784;30.150;2023-12-28T04:51:42;10.99;;;4.91;;
61473;SDS011;53694;49.784;30.150;2023-12-28T04:52:45;9.99;;;4.22;;
61473;SDS011;53694;49.784;30.150;2023-12-28T04:53:47;9.44;;;4.20;;
61473;SDS011;53694;49.784;30.150;2023-12-28T04:54:48;9.75;;;3.56;;
61473;SDS011;53694;49.784;30.150;2023-12-28T04:55:50;9.51;;;4.09;;
61473;SDS011;53694;49.784;30.150;2023-12-28T04:56:51;6.70;;;3.06;;
61473;SDS011;53694;49.784;30.150;2023-12-28T04:57:53;7.92;;;3.86;;
61473;SDS011;53694;49.784;30.150;2023-12-28T04:58:54;10.90;;;3.79;;
61473;SDS011;53694;49.784;30.150;2023-12-28T04:59:56;9.81;;;4.53;;
61473;SDS011;53694;49.784;30.150;2023-12-28T05:00:57;10.87;;;5.05;;
61473;SDS011;53694;49.784;30.150;2023-12-28T05:01:59;11.24;;;4.96;;
61473;SDS011;53694;49.784;30.150;2023-12-28T05:03:00;13.31;;;6.21;;
61473;SDS011;53694;49.784;30.150;2023-12-28T05:04:02;12.92;;;6.31;;
61473;SDS011;53694;49.784;30.150;2023-12-28T05:05:04;13.61;;;7.50;;
61473;SDS011;53694;49.784;30.150;2023-12-28T05:06:06;15.95;;;8.29;;
61473;SDS011;53694;49.784;30.150;2023-12-28T05:07:08;16.67;;;8.30;;
61473;SDS011;53694;49.784;30.150;2023-12-28T05:08:09;15.82;;;7.78;;
61473;SDS011;53694;49.784;30.150;2023-12-28T05:09:11;16.64;;;6.85;;
61473;SDS011;53694;49.784;30.150;2023-12-28T05:10:13;13.23;;;6.61;;
61473;SDS011;53694;49.784;30.150;2023-12-28T05:11:15;15.61;;;6.83;;
61473;SDS011;53694;49.784;30.150;2023-12-28T05:12:16;11.61;;;5.13;;
61473;SDS011;53694;49.784;30.150;2023-12-28T05:13:18;11.63;;;4.28;;
61473;SDS011;53694;49.784;30.150;2023-12-28T05:14:19;8.92;;;4.29;;
61473;SDS011;53694;49.784;30.150;2023-12-28T05:15:21;12.11;;;3.96;;
61473;SDS011;53694;49.784;30.150;2023-12-28T05:16:22;12.84;;;5.37;;
61473;SDS011;53694;49.784;30.150;2023-12-28T05:17:24;11.50;;;5.16;;
61473;SDS011;53694;49.784;30.150;2023-12-28T05:18:25;9.13;;;4.74;;
61473;SDS011;53694;49.784;30.150;2023-12-28T05:19:27;12.46;;;5.04;;
61473;SDS011;53694;49.784;30.150;2023-12-28T05:20:29;9.68;;;5.27;;
61473;SDS011;53694;49.784;30.150;2023-12-28T05:21:30;11.80;;;5.75;;
61473;SDS011;53694;49.784;30.150;2023-12-28T05:22:32;12.21;;;6.86;;
61473;SDS011;53694;49.784;30.150;2023-12-28T05:23:33;19.09;;;9.64;;
61473;SDS011;53694;49.784;30.150;2023-12-28T05:24:35;13.34;;;6.08;;
61473;SDS011;53694;49.784;30.150;2023-12-28T05:25:36;20.79;;;8.57;;
61473;SDS011;53694;49.784;30.150;2023-12-28T05:26:38;20.51;;;11.44;;
61473;SDS011;53694;49.784;30.150;2023-12-28T05:27:39;19.49;;;10.23;;
61473;SDS011;53694;49.784;30.150;2023-12-28T05:28:41;15.27;;;7.54;;
61473;SDS011;53694;49.784;30.150;2023-12-28T05:29:43;11.91;;;6.53;;
61473;SDS011;53694;49.784;30.150;2023-12-28T05:30:44;10.69;;;4.84;;
61473;SDS011;53694;49.784;30.150;2023-12-28T05:31:46;10.30;;;3.79;;
61473;SDS011;53694;49.784;30.150;2023-12-28T05:32:47;7.22;;;3.98;;
61473;SDS011;53694;49.784;30.150;2023-12-28T05:33:49;10.58;;;3.71;;
61473;SDS011;53694;49.784;30.150;2023-12-28T05:34:50;9.90;;;3.71;;
61473;SDS011;53694;49.784;30.150;2023-12-28T05:35:52;12.59;;;3.79;;
61473;SDS011;53694;49.784;30.150;2023-12-28T05:36:54;7.75;;;2.98;;
61473;SDS011;53694;49.784;30.150;2023-12-28T05:37:55;5.80;;;2.63;;
61473;SDS011;53694;49.784;30.150;2023-12-28T05:38:57;7.96;;;2.88;;
61473;SDS011;53694;49.784;30.150;2023-12-28T05:39:59;9.14;;;3.46;;
61473;SDS011;53694;49.784;30.150;2023-12-28T05:41:01;10.94;;;3.85;;
61473;SDS011;53694;49.784;30.150;2023-12-28T05:42:02;10.09;;;3.71;;
61473;SDS011;53694;49.784;30.150;2023-12-28T05:43:04;12.23;;;4.79;;
61473;SDS011;53694;49.784;30.150;2023-12-28T05:44:06;13.05;;;5.47;;
61473;SDS011;53694;49.784;30.150;2023-12-28T05:45:08;16.25;;;6.44;;
61473;SDS011;53694;49.784;30.150;2023-12-28T05:46:10;17.25;;;7.02;;
61473;SDS011;53694;49.784;30.150;2023-12-28T05:47:12;15.14;;;5.99;;
61473;SDS011;53694;49.784;30.150;2023-12-28T05:48:14;10.51;;;4.51;;
61473;SDS011;53694;49.784;30.150;2023-12-28T05:49:16;9.03;;;4.90;;
61473;SDS011;53694;49.784;30.150;2023-12-28T05:50:18;14.11;;;5.17;;
61473;SDS011;53694;49.784;30.150;2023-12-28T05:51:19;9.24;;;4.24;;
61473;SDS011;53694;49.784;30.150;2023-12-28T05:52:21;9.40;;;4.44;;
61473;SDS011;53694;49.784;30.150;2023-12-28T05:53:23;8.62;;;4.46;;
61473;SDS011;53694;49.784;30.150;2023-12-28T05:54:24;10.19;;;3.91;;
61473;SDS011;53694;49.784;30.150;2023-12-28T05:55:26;9.63;;;4.03;;
61473;SDS011;53694;49.784;30.150;2023-12-28T05:56:27;8.19;;;3.45;;
61473;SDS011;53694;49.784;30.150;2023-12-28T05:57:29;8.07;;;3.26;;
61473;SDS011;53694;49.784;30.150;2023-12-28T05:58:31;6.17;;;3.03;;
61473;SDS011;53694;49.784;30.150;2023-12-28T05:59:32;6.85;;;2.71;;
61473;SDS011;53694;49.784;30.150;2023-12-28T06:00:36;6.87;;;3.16;;
61473;SDS011;53694;49.784;30.150;2023-12-28T06:01:43;10.59;;;3.89;;
61473;SDS011;53694;49.784;30.150;2023-12-28T06:02:45;8.76;;;4.57;;
61473;SDS011;53694;49.784;30.150;2023-12-28T06:03:47;10.96;;;4.25;;
61473;SDS011;53694;49.784;30.150;2023-12-28T06:04:48;8.65;;;4.22;;
61473;SDS011;53694;49.784;30.150;2023-12-28T06:05:50;9.90;;;4.56;;
61473;SDS011;53694;49.784;30.150;2023-12-28T06:06:51;10.61;;;4.70;;
61473;SDS011;53694;49.784;30.150;2023-12-28T06:07:52;8.85;;;4.20;;
61473;SDS011;53694;49.784;30.150;2023-12-28T06:08:54;12.98;;;4.93;;